createdAt,value
2019-05-02T00:00:10.126Z,2.90
2019-05-02T00:02:37.178Z,3.30
2019-05-02T00:05:06.729Z,3.60
2019-05-02T00:07:33.790Z,3.10
2019-05-02T00:10:00.782Z,3.13
2019-05-02T00:12:27.931Z,3.50
2019-05-02T00:14:56.499Z,3.80
2019-05-02T00:17:25.657Z,3.80
2019-05-02T00:19:49.840Z,3.90
2019-05-02T00:22:17.325Z,3.23
2019-05-02T00:24:43.739Z,4.40
2019-05-02T00:27:10.840Z,4.20
2019-05-02T00:29:37.880Z,4.13
2019-05-02T00:32:04.929Z,4.17
2019-05-02T00:34:31.989Z,4.10
2019-05-02T00:37:00.709Z,4.07
2019-05-02T00:39:27.715Z,4.23
2019-05-02T00:41:54.761Z,5.20
2019-05-02T00:44:21.810Z,4.90
2019-05-02T00:46:51.876Z,4.57
2019-05-02T00:49:18.876Z,5.73
2019-05-02T00:51:46.546Z,4.97
2019-05-02T00:54:13.588Z,5.67
2019-05-02T00:56:44.141Z,5.13
2019-05-02T00:59:08.807Z,5.33
2019-05-02T01:01:34.939Z,5.33
2019-05-02T01:04:23.383Z,5.53
2019-05-02T01:06:49.285Z,6.00
2019-05-02T01:09:15.139Z,5.90
2019-05-02T01:11:42.283Z,5.83
2019-05-02T01:14:09.336Z,5.67
2019-05-02T01:16:36.687Z,6.77
2019-05-02T01:19:03.735Z,6.10
2019-05-02T01:21:34.027Z,5.90
2019-05-02T01:23:59.002Z,6.13
2019-05-02T01:26:29.306Z,6.03
2019-05-02T01:28:54.302Z,6.53
2019-05-02T01:31:26.201Z,6.63
2019-05-02T01:34:08.148Z,6.20
2019-05-02T01:36:51.578Z,6.33
2019-05-02T01:39:18.601Z,6.53
2019-05-02T01:41:45.676Z,6.83
2019-05-02T01:44:12.724Z,6.43
2019-05-02T01:46:39.778Z,6.70
2019-05-02T01:49:06.775Z,6.33
2019-05-02T01:51:36.673Z,6.40
2019-05-02T01:54:04.899Z,6.40
2019-05-02T01:56:28.549Z,6.53
2019-05-02T01:58:57.718Z,7.10
2019-05-02T02:01:23.356Z,7.10
2019-05-02T02:03:49.626Z,6.87
2019-05-02T02:06:16.777Z,6.53
2019-05-02T02:08:43.830Z,6.13
2019-05-02T02:11:10.875Z,7.10
2019-05-02T02:13:38.070Z,7.23
2019-05-02T02:16:05.910Z,7.00
2019-05-02T02:18:32.182Z,6.20
2019-05-02T02:21:01.012Z,7.20
2019-05-02T02:23:30.826Z,6.60
2019-05-02T02:26:02.381Z,6.90
2019-05-02T02:28:32.067Z,7.03
2019-05-02T02:30:57.967Z,6.40
2019-05-02T02:33:23.731Z,7.00
2019-05-02T02:35:52.222Z,6.67
2019-05-02T02:38:17.881Z,7.03
2019-05-02T02:40:44.877Z,6.43
2019-05-02T02:43:34.249Z,7.10
2019-05-02T02:45:57.777Z,6.50
2019-05-02T02:48:19.647Z,6.13
2019-05-02T02:50:46.691Z,6.73
2019-05-02T02:53:18.116Z,5.87
2019-05-02T02:55:40.896Z,6.13
2019-05-02T02:58:09.065Z,6.03
2019-05-02T03:00:41.516Z,6.40
2019-05-02T03:03:03.270Z,6.10
2019-05-02T03:05:31.441Z,6.23
2019-05-02T03:07:59.653Z,5.93
2019-05-02T03:10:25.647Z,6.03
2019-05-02T03:12:59.452Z,5.50
2019-05-02T03:15:28.181Z,5.53
2019-05-02T03:17:59.905Z,5.57
2019-05-02T03:20:20.799Z,6.13
2019-05-02T03:22:47.858Z,5.53
2019-05-02T03:25:18.248Z,5.57
2019-05-02T03:27:42.004Z,5.97
2019-05-02T03:30:09.005Z,5.90
2019-05-02T03:32:36.452Z,6.00
2019-05-02T03:35:03.221Z,6.10
2019-05-02T03:37:30.345Z,6.10
2019-05-02T03:40:00.287Z,5.53
2019-05-02T03:42:24.444Z,5.50
2019-05-02T03:44:56.955Z,5.53
2019-05-02T03:47:18.637Z,6.47
2019-05-02T03:49:49.029Z,6.83
2019-05-02T03:52:12.688Z,5.83
2019-05-02T03:54:49.062Z,6.17
2019-05-02T03:57:06.937Z,6.03
2019-05-02T03:59:39.184Z,6.67
2019-05-02T04:02:01.651Z,5.87
2019-05-02T04:04:28.652Z,5.60
2019-05-02T04:07:01.066Z,6.33
2019-05-02T04:09:23.611Z,5.90
2019-05-02T04:11:50.565Z,5.57
2019-05-02T04:14:36.597Z,5.80
2019-05-02T04:16:48.613Z,5.70
2019-05-02T04:19:13.957Z,5.20
2019-05-02T04:21:41.113Z,5.87
2019-05-02T04:24:13.766Z,5.63
2019-05-02T04:26:35.602Z,5.67
2019-05-02T04:29:02.985Z,5.53
2019-05-02T04:31:32.278Z,5.67
2019-05-02T04:33:57.590Z,6.07
2019-05-02T04:36:24.844Z,5.57
2019-05-02T04:38:52.750Z,5.93
2019-05-02T04:41:28.687Z,6.67
2019-05-02T04:43:54.426Z,5.83
2019-05-02T04:46:22.330Z,14.53
2019-05-02T04:48:48.279Z,6.50
2019-05-02T04:51:16.323Z,60.43
2019-05-02T04:53:42.214Z,33.97
2019-05-02T04:56:10.197Z,12.53
2019-05-02T04:58:36.973Z,17.83
2019-05-02T05:01:01.889Z,13.23
2019-05-02T05:03:28.592Z,11.10
2019-05-02T05:05:59.405Z,6.90
2019-05-02T05:08:26.363Z,6.87
2019-05-02T05:10:50.244Z,6.77
2019-05-02T05:13:22.789Z,7.93
2019-05-02T05:15:48.857Z,7.97
2019-05-02T05:18:14.394Z,6.50
2019-05-02T05:20:40.527Z,11.03
2019-05-02T05:23:08.085Z,6.00
2019-05-02T05:25:37.856Z,9.17
2019-05-02T05:28:06.108Z,8.90
2019-05-02T05:30:31.328Z,11.03
2019-05-02T05:32:58.405Z,7.50
2019-05-02T05:35:25.528Z,12.87
2019-05-02T05:37:53.327Z,12.10
2019-05-02T05:40:22.695Z,10.90
2019-05-02T05:42:48.126Z,8.37
2019-05-02T05:45:14.177Z,10.77
2019-05-02T05:47:41.185Z,8.77
2019-05-02T05:50:08.456Z,7.40
2019-05-02T05:52:38.688Z,5.27
2019-05-02T05:55:28.173Z,4.73
2019-05-02T06:01:10.190Z,4.27
2019-05-02T06:09:50.250Z,4.67
2019-05-02T06:12:43.807Z,5.00
2019-05-02T06:18:43.576Z,4.60
2019-05-02T06:21:33.393Z,4.80
2019-05-02T06:30:43.483Z,4.97
2019-05-02T06:36:47.559Z,3.50
2019-05-02T06:39:44.534Z,3.10
2019-05-02T06:42:47.656Z,3.80
2019-05-02T06:48:39.242Z,3.77
2019-05-02T06:51:10.970Z,3.50
2019-05-02T06:53:35.150Z,3.60
2019-05-02T06:56:01.139Z,3.97
2019-05-02T06:58:28.181Z,4.03
2019-05-02T07:00:57.422Z,3.50
2019-05-02T07:03:22.591Z,3.90
2019-05-02T07:05:49.744Z,4.17
2019-05-02T07:08:18.557Z,4.10
2019-05-02T07:10:45.671Z,1.70
2019-05-02T07:13:15.140Z,3.40
2019-05-02T07:15:50.497Z,3.90
2019-05-02T07:18:19.518Z,3.93
2019-05-02T07:20:47.285Z,4.10
2019-05-02T07:23:16.037Z,3.77
2019-05-02T07:25:43.995Z,3.33
2019-05-02T07:28:09.399Z,2.93
2019-05-02T07:30:36.400Z,4.13
2019-05-02T07:33:03.556Z,2.77
2019-05-02T07:35:30.606Z,2.63
2019-05-02T07:37:57.765Z,2.13
2019-05-02T07:40:24.802Z,3.00
2019-05-02T07:42:51.857Z,1.57
2019-05-02T07:45:19.002Z,2.08
2019-05-02T07:47:47.460Z,2.95
2019-05-02T07:50:14.631Z,3.03
2019-05-02T07:52:41.690Z,3.40
2019-05-02T07:55:10.161Z,3.70
2019-05-02T07:57:36.015Z,4.05
2019-05-02T08:00:03.236Z,3.30
2019-05-02T08:02:30.285Z,3.47
2019-05-02T08:04:57.339Z,3.15
2019-05-02T08:07:29.976Z,3.90
2019-05-02T08:09:52.870Z,4.30
2019-05-02T08:12:20.221Z,4.50
2019-05-02T08:14:47.171Z,4.18
2019-05-02T08:17:17.485Z,4.35
2019-05-02T08:19:41.792Z,4.43
2019-05-02T08:22:13.402Z,4.20
2019-05-02T08:24:38.024Z,4.28
2019-05-02T08:27:18.384Z,4.53
2019-05-02T08:29:45.746Z,4.78
2019-05-02T08:32:15.292Z,4.20
2019-05-02T08:34:46.070Z,5.07
2019-05-02T08:37:09.499Z,5.28
2019-05-02T08:39:36.597Z,5.32
2019-05-02T08:42:03.848Z,4.80
2019-05-02T08:44:30.901Z,5.53
2019-05-02T08:46:57.951Z,5.80
2019-05-02T08:49:25.105Z,5.70
2019-05-02T08:51:52.146Z,2.50
2019-05-02T08:54:19.149Z,4.43
2019-05-02T08:56:46.256Z,4.93
2019-05-02T08:59:13.401Z,4.37
2019-05-02T09:01:40.527Z,3.53
2019-05-02T09:04:07.593Z,4.95
2019-05-02T09:06:34.643Z,4.28
2019-05-02T09:09:01.697Z,4.07
2019-05-02T09:11:28.848Z,3.80
2019-05-02T09:13:55.891Z,4.57
2019-05-02T09:16:28.936Z,3.85
2019-05-02T09:18:53.775Z,4.22
2019-05-02T09:21:17.346Z,4.00
2019-05-02T09:23:44.392Z,4.10
2019-05-02T09:26:11.914Z,4.50
2019-05-02T09:28:38.905Z,4.43
2019-05-02T09:31:06.779Z,4.35
2019-05-02T09:33:36.823Z,4.30
2019-05-02T09:36:02.423Z,3.85
2019-05-02T09:38:30.448Z,4.30
2019-05-02T09:40:57.731Z,3.42
2019-05-02T09:43:24.774Z,4.47
2019-05-02T09:45:52.099Z,4.72
2019-05-02T09:48:24.274Z,4.10
2019-05-02T09:50:46.178Z,4.50
2019-05-02T09:53:20.872Z,4.70
2019-05-02T09:55:42.391Z,3.75
2019-05-02T09:58:10.435Z,4.40
2019-05-02T10:00:52.957Z,5.20
2019-05-02T10:03:20.020Z,4.40
2019-05-02T10:05:47.059Z,4.30
2019-05-02T10:08:14.182Z,4.18
2019-05-02T10:10:44.195Z,4.35
2019-05-02T10:13:08.378Z,4.20
2019-05-02T10:15:35.782Z,4.20
2019-05-02T10:18:10.559Z,4.87
2019-05-02T10:20:31.876Z,4.87
2019-05-02T10:22:57.123Z,5.55
2019-05-02T10:25:24.159Z,4.80
2019-05-02T10:27:52.361Z,5.68
2019-05-02T10:30:21.698Z,5.22
2019-05-02T10:32:51.902Z,5.35
2019-05-02T10:35:14.612Z,6.12
2019-05-02T10:37:43.051Z,5.82
2019-05-02T10:40:15.490Z,6.68
2019-05-02T10:42:37.812Z,6.47
2019-05-02T10:45:07.476Z,5.62
2019-05-02T10:47:32.813Z,5.25
2019-05-02T10:50:02.316Z,5.50
2019-05-02T10:52:33.972Z,6.10
2019-05-02T10:54:54.581Z,5.55
2019-05-02T10:57:22.008Z,5.37
2019-05-02T10:59:48.883Z,5.40
2019-05-02T11:02:32.626Z,5.25
2019-05-02T11:05:02.860Z,5.95
2019-05-02T11:07:29.895Z,5.50
2019-05-02T11:09:57.329Z,6.95
2019-05-02T11:12:40.703Z,6.35
2019-05-02T11:14:55.750Z,5.22
2019-05-02T11:17:25.774Z,6.87
2019-05-02T11:19:55.078Z,6.97
2019-05-02T11:22:22.774Z,7.35
2019-05-02T11:24:49.993Z,5.85
2019-05-02T11:27:16.993Z,5.80
2019-05-02T11:29:44.088Z,7.03
2019-05-02T11:32:13.288Z,7.62
2019-05-02T11:34:42.064Z,7.93
2019-05-02T11:37:07.591Z,7.80
2019-05-02T11:39:43.742Z,6.62
2019-05-02T11:42:02.475Z,7.68
2019-05-02T11:44:29.559Z,6.75
2019-05-02T11:46:57.520Z,6.87
2019-05-02T11:49:24.574Z,7.53
2019-05-02T11:51:55.744Z,7.78
2019-05-02T11:54:19.305Z,7.18
2019-05-02T11:56:49.460Z,6.53
2019-05-02T11:59:15.066Z,6.80
2019-05-02T12:01:56.549Z,8.73
2019-05-02T12:04:16.748Z,6.55
2019-05-02T12:06:42.259Z,8.98
2019-05-02T12:09:08.233Z,8.18
2019-05-02T12:11:35.481Z,7.97
2019-05-02T12:14:02.551Z,7.50
2019-05-02T12:16:29.686Z,8.75
2019-05-02T12:19:08.585Z,7.75
2019-05-02T12:21:23.852Z,8.70
2019-05-02T12:23:52.638Z,8.50
2019-05-02T12:26:18.081Z,8.27
2019-05-02T12:28:45.135Z,8.57
2019-05-02T12:31:16.562Z,6.72
2019-05-02T12:33:39.534Z,7.97
2019-05-02T12:36:06.685Z,6.10
2019-05-02T12:38:33.747Z,7.20
2019-05-02T12:41:02.702Z,7.10
2019-05-02T12:43:28.758Z,6.80
2019-05-02T12:45:56.518Z,5.50
2019-05-02T12:48:23.572Z,5.35
2019-05-02T12:50:52.604Z,4.70
2019-05-02T12:53:17.766Z,5.07
2019-05-02T12:55:44.817Z,4.90
2019-05-02T12:58:12.549Z,4.85
2019-05-02T13:00:39.019Z,5.47
2019-05-02T13:03:08.027Z,5.32
2019-05-02T13:05:35.166Z,6.37
2019-05-02T13:08:03.744Z,7.07
2019-05-02T13:10:55.850Z,8.45
2019-05-02T13:13:16.789Z,9.15
2019-05-02T13:15:51.881Z,9.73
2019-05-02T13:18:18.630Z,9.80
2019-05-02T13:20:44.998Z,10.35
2019-05-02T13:23:17.884Z,10.38
2019-05-02T13:25:44.939Z,11.10
2019-05-02T13:28:17.089Z,10.50
2019-05-02T13:30:43.703Z,10.25
2019-05-02T13:33:09.052Z,9.85
2019-05-02T13:35:36.922Z,10.02
2019-05-02T13:38:04.078Z,10.23
2019-05-02T13:40:32.277Z,9.98
2019-05-02T13:42:58.990Z,9.65
2019-05-02T13:45:32.373Z,9.57
2019-05-02T13:47:59.531Z,10.02
2019-05-02T13:50:26.550Z,9.50
2019-05-02T13:52:57.851Z,8.95
2019-05-02T13:55:20.779Z,8.88
2019-05-02T13:57:47.829Z,5.47
2019-05-02T14:00:14.980Z,7.80
2019-05-02T14:02:42.671Z,7.60
2019-05-02T14:05:10.304Z,7.68
2019-05-02T14:07:37.456Z,6.50
2019-05-02T14:10:07.065Z,6.47
2019-05-02T14:12:42.124Z,6.95
2019-05-02T14:15:07.271Z,6.25
2019-05-02T14:17:34.356Z,6.12
2019-05-02T14:20:10.657Z,5.55
2019-05-02T14:22:28.765Z,5.50
2019-05-02T14:24:55.916Z,6.10
2019-05-02T14:27:22.960Z,4.40
2019-05-02T14:29:50.007Z,4.57
2019-05-02T14:32:23.249Z,5.75
2019-05-02T14:34:46.337Z,5.62
2019-05-02T14:37:13.407Z,5.07
2019-05-02T14:39:41.640Z,4.15
2019-05-02T14:42:07.708Z,4.03
2019-05-02T14:45:01.385Z,4.60
2019-05-02T14:47:02.830Z,5.10
2019-05-02T14:49:31.640Z,3.90
2019-05-02T14:52:01.574Z,4.30
2019-05-02T14:54:24.386Z,3.62
2019-05-02T14:56:55.026Z,3.47
2019-05-02T14:59:22.724Z,4.25
2019-05-02T15:01:50.251Z,4.20
2019-05-02T15:04:17.802Z,3.42
2019-05-02T15:06:47.439Z,3.30
2019-05-02T15:09:12.148Z,3.00
2019-05-02T15:11:39.158Z,2.28
2019-05-02T15:14:06.204Z,2.47
2019-05-02T15:16:40.379Z,2.15
2019-05-02T15:19:02.012Z,2.53
2019-05-02T15:21:27.655Z,2.22
2019-05-02T15:23:57.986Z,2.25
2019-05-02T15:26:26.404Z,1.92
2019-05-02T15:28:52.041Z,2.20
2019-05-02T15:31:24.312Z,2.10
2019-05-02T15:33:56.353Z,1.90
2019-05-02T15:36:19.272Z,1.98
2019-05-02T15:38:47.604Z,1.90
2019-05-02T15:41:16.488Z,2.00
2019-05-02T15:43:44.447Z,2.03
2019-05-02T15:46:14.951Z,2.17
2019-05-02T15:48:37.748Z,2.10
2019-05-02T15:51:06.130Z,2.10
2019-05-02T15:53:32.804Z,2.08
2019-05-02T15:56:01.983Z,2.17
2019-05-02T15:58:28.017Z,2.00
2019-05-02T16:01:01.751Z,1.92
2019-05-02T16:03:27.349Z,1.95
2019-05-02T16:05:54.397Z,2.20
2019-05-02T16:08:21.574Z,2.10
2019-05-02T16:11:08.828Z,2.05
2019-05-02T16:13:46.999Z,2.00
2019-05-02T16:16:19.311Z,2.20
2019-05-02T16:18:46.513Z,1.83
2019-05-02T16:21:18.365Z,1.70
2019-05-02T16:23:49.323Z,1.95
2019-05-02T16:26:16.458Z,2.00
2019-05-02T16:28:45.672Z,2.15
2019-05-02T16:31:17.136Z,2.03
2019-05-02T16:33:41.754Z,1.80
2019-05-02T16:36:08.747Z,2.12
2019-05-02T16:38:35.803Z,2.42
2019-05-02T16:41:09.974Z,2.10
2019-05-02T16:43:30.057Z,2.00
2019-05-02T16:45:57.148Z,1.73
2019-05-02T16:48:24.149Z,2.30
2019-05-02T16:50:51.250Z,2.12
2019-05-02T16:53:22.702Z,1.95
2019-05-02T16:55:45.430Z,2.62
2019-05-02T16:58:12.492Z,2.20
2019-05-02T17:00:42.521Z,2.12
2019-05-02T17:03:06.709Z,1.92
2019-05-02T17:05:33.740Z,2.33
2019-05-02T17:08:20.196Z,2.22
2019-05-02T17:10:47.213Z,2.12
2019-05-02T17:13:14.107Z,2.20
2019-05-02T17:15:42.801Z,2.30
2019-05-02T17:18:17.658Z,1.80
2019-05-02T17:20:39.486Z,2.28
2019-05-02T17:23:07.483Z,2.12
2019-05-02T17:25:33.687Z,2.12
2019-05-02T17:28:05.911Z,2.22
2019-05-02T17:30:33.703Z,2.22
2019-05-02T17:32:57.144Z,2.30
2019-05-02T17:35:24.344Z,2.35
2019-05-02T17:37:53.541Z,2.30
2019-05-02T17:40:22.509Z,1.98
2019-05-02T17:42:47.840Z,2.20
2019-05-02T17:45:14.884Z,2.55
2019-05-02T17:47:41.933Z,2.03
2019-05-02T17:50:18.435Z,2.50
2019-05-02T17:52:42.747Z,2.35
2019-05-02T17:55:08.918Z,2.25
2019-05-02T17:57:35.986Z,2.58
2019-05-02T18:00:07.457Z,2.62
2019-05-02T18:02:31.717Z,2.33
2019-05-02T18:04:57.383Z,2.60
2019-05-02T18:07:31.728Z,2.45
2019-05-02T18:09:59.192Z,2.65
2019-05-02T18:12:26.249Z,2.70
2019-05-02T18:14:59.047Z,3.20
2019-05-02T18:17:22.018Z,2.60
2019-05-02T18:19:47.555Z,3.05
2019-05-02T18:22:23.250Z,2.80
2019-05-02T18:24:42.811Z,2.75
2019-05-02T18:27:16.476Z,2.70
2019-05-02T18:29:47.876Z,3.58
2019-05-02T18:32:17.623Z,3.33
2019-05-02T18:34:45.938Z,3.20
2019-05-02T18:37:18.354Z,3.33
2019-05-02T18:39:53.196Z,3.50
2019-05-02T18:42:16.662Z,3.50
2019-05-02T18:44:42.034Z,4.03
2019-05-02T18:47:12.468Z,3.17
2019-05-02T18:49:35.325Z,3.83
2019-05-02T18:52:05.133Z,3.75
2019-05-02T18:54:38.655Z,3.95
2019-05-02T18:57:03.022Z,3.65
2019-05-02T18:59:31.917Z,3.90
2019-05-02T19:01:59.858Z,4.55
2019-05-02T19:04:35.257Z,3.95
2019-05-02T19:06:56.842Z,4.22
2019-05-02T19:09:29.811Z,5.50
2019-05-02T19:12:04.822Z,5.45
2019-05-02T19:14:24.541Z,5.00
2019-05-02T19:16:47.912Z,6.20
2019-05-02T19:19:16.087Z,5.37
2019-05-02T19:21:43.236Z,5.18
2019-05-02T19:24:10.299Z,5.15
2019-05-02T19:26:41.695Z,4.55
2019-05-02T19:29:08.577Z,5.82
2019-05-02T19:31:36.636Z,4.93
2019-05-02T19:34:04.116Z,5.22
2019-05-02T19:36:32.747Z,5.03
2019-05-02T19:39:06.240Z,5.45
2019-05-02T19:41:25.664Z,5.80
2019-05-02T19:43:53.395Z,4.62
2019-05-02T19:46:24.456Z,6.10
2019-05-02T19:48:48.346Z,6.25
2019-05-02T19:51:18.737Z,6.97
2019-05-02T19:53:42.853Z,6.25
2019-05-02T19:56:09.906Z,5.43
2019-05-02T19:58:41.699Z,5.15
2019-05-02T20:01:04.116Z,4.75
2019-05-02T20:03:32.685Z,4.45
2019-05-02T20:06:02.550Z,4.00
2019-05-02T20:08:28.121Z,4.32
2019-05-02T20:10:58.298Z,3.97
2019-05-02T20:13:28.363Z,3.85
2019-05-02T20:16:04.403Z,3.78
2019-05-02T20:18:34.904Z,4.60
2019-05-02T20:21:00.156Z,4.05
2019-05-02T20:23:31.609Z,3.67
2019-05-02T20:25:54.421Z,3.72
2019-05-02T20:28:21.938Z,3.90
2019-05-02T20:30:48.653Z,3.97
2019-05-02T20:33:15.760Z,4.57
2019-05-02T20:35:44.667Z,4.03
2019-05-02T20:38:13.505Z,4.50
2019-05-02T20:40:39.209Z,4.40
2019-05-02T20:43:07.588Z,5.05
2019-05-02T20:45:34.789Z,4.62
2019-05-02T20:48:02.209Z,4.57
2019-05-02T20:50:29.043Z,4.45
2019-05-02T20:52:56.089Z,4.05
2019-05-02T20:55:23.748Z,4.28
2019-05-02T20:57:52.635Z,4.40
2019-05-02T21:00:23.400Z,4.20
2019-05-02T21:02:51.803Z,4.30
2019-05-02T21:05:19.826Z,4.45
2019-05-02T21:07:52.387Z,4.70
2019-05-02T21:10:23.146Z,5.00
2019-05-02T21:12:50.204Z,4.87
2019-05-02T21:15:24.260Z,5.37
2019-05-02T21:17:51.322Z,5.53
2019-05-02T21:20:18.401Z,5.55
2019-05-02T21:22:45.435Z,4.68
2019-05-02T21:25:13.119Z,5.40
2019-05-02T21:27:41.765Z,5.18
2019-05-02T21:30:08.034Z,5.65
2019-05-02T21:32:35.053Z,5.10
2019-05-02T21:35:03.765Z,5.30
2019-05-02T21:37:31.987Z,5.45
2019-05-02T21:39:58.022Z,5.22
2019-05-02T21:42:25.115Z,5.65
2019-05-02T21:44:52.231Z,5.78
2019-05-02T21:47:19.320Z,5.95
2019-05-02T21:49:46.364Z,5.70
2019-05-02T21:52:16.328Z,5.90
2019-05-02T21:54:44.352Z,6.00
2019-05-02T21:57:12.142Z,5.80
2019-05-02T21:59:38.551Z,5.72
2019-05-02T22:02:08.201Z,6.20
2019-05-02T22:04:36.238Z,6.25
2019-05-02T22:07:03.287Z,6.15
2019-05-02T22:09:32.446Z,6.57
2019-05-02T22:11:59.434Z,6.20
2019-05-02T22:14:26.477Z,6.65
2019-05-02T22:16:54.349Z,6.40
2019-05-02T22:19:21.419Z,6.65
2019-05-02T22:21:48.546Z,6.05
2019-05-02T22:24:15.591Z,6.72
2019-05-02T22:26:43.608Z,6.47
2019-05-02T22:29:09.802Z,6.25
2019-05-02T22:31:37.761Z,6.67
2019-05-02T22:34:04.809Z,7.03
2019-05-02T22:36:34.111Z,6.53
2019-05-02T22:39:06.941Z,6.47
2019-05-02T22:41:33.943Z,7.05
2019-05-02T22:44:01.883Z,6.62
2019-05-02T22:46:34.824Z,6.93
2019-05-02T22:49:02.376Z,7.20
2019-05-02T22:51:28.998Z,6.47
2019-05-02T22:53:56.052Z,6.73
2019-05-02T22:56:23.046Z,7.50
2019-05-02T22:58:51.534Z,6.97
2019-05-02T23:01:17.198Z,7.00
2019-05-02T23:03:44.445Z,6.62
2019-05-02T23:06:12.565Z,6.90
2019-05-02T23:08:38.650Z,6.80
2019-05-02T23:11:05.693Z,6.77
2019-05-02T23:13:32.743Z,6.67
2019-05-02T23:15:59.797Z,7.10
2019-05-02T23:18:27.255Z,7.03
2019-05-02T23:20:54.300Z,7.10
2019-05-02T23:23:21.536Z,7.10
2019-05-02T23:25:49.322Z,7.70
2019-05-02T23:28:16.367Z,7.60
2019-05-02T23:30:43.414Z,7.60
2019-05-02T23:33:10.469Z,7.37
2019-05-02T23:35:37.511Z,8.07
2019-05-02T23:38:05.482Z,7.73
2019-05-02T23:40:32.480Z,7.30
2019-05-02T23:42:59.579Z,7.03
2019-05-02T23:45:26.935Z,7.93
2019-05-02T23:47:53.936Z,7.77
2019-05-02T23:50:22.799Z,7.77
2019-05-02T23:52:48.490Z,8.23
2019-05-02T23:55:15.641Z,7.77
2019-05-02T23:57:42.690Z,8.43
